Time;durP1;ratioP1;P1;durP2;ratioP2;P2;SDS_P1;SDS_P2;PMS_P1;PMS_P2;Temp;Humidity;BMP_temperature;BMP_pressure;BME280_temperature;BME280_humidity;BME280_pressure;Samples;Min_cycle;Max_cycle;Signal;HPM_P1;HPM_P2
2022/05/26 00:00:55;;;;;;;29.55;10.73;;;;;;;;;;5016174;28;20149;-68
2022/05/26 00:03:21;;;;;;;;;;;;;;;;;;5028246;28;20534;-65
2022/05/26 00:05:47;;;;;;;29.33;10.85;;;;;;;;;;5016544;28;19925;-64
2022/05/26 00:08:13;;;;;;;33.83;10.85;;;;;;;;;;5008100;28;20446;-65
2022/05/26 00:10:39;;;;;;;36.03;11.50;;;;;;;;;;5007597;28;20094;-64
2022/05/26 00:13:05;;;;;;;33.88;11.75;;;;;;;;;;5015828;28;20053;-65
2022/05/26 00:15:32;;;;;;;41.38;12.55;;;;;;;;;;5020342;28;20065;-65
2022/05/26 00:17:58;;;;;;;33.25;10.85;;;;;;;;;;5021115;28;20241;-65
2022/05/26 00:20:24;;;;;;;34.20;10.82;;;;;;;;;;5031185;28;20145;-66
2022/05/26 00:22:51;;;;;;;34.97;10.85;;;;;;;;;;5030667;28;20453;-65
2022/05/26 00:25:17;;;;;;;32.92;10.98;;;;;;;;;;5024544;28;20068;-66
2022/05/26 00:27:43;;;;;;;35.67;11.40;;;;;;;;;;5006557;28;20053;-65
2022/05/26 00:30:09;;;;;;;40.75;12.30;;;;;;;;;;5024853;28;20057;-64
2022/05/26 00:32:35;;;;;;;42.30;12.27;;;;;;;;;;5030773;28;20046;-65
2022/05/26 00:35:01;;;;;;;38.20;12.02;;;;;;;;;;5030365;28;20559;-66
2022/05/26 00:37:28;;;;;;;36.33;11.48;;;;;;;;;;5018494;28;20458;-64
2022/05/26 00:39:54;;;;;;;;;;;;;;;;;;5013109;28;20092;-65
2022/05/26 00:42:20;;;;;;;36.53;12.10;;;;;;;;;;5030678;28;19980;-64
2022/05/26 00:44:46;;;;;;;41.50;11.85;;;;;;;;;;5030128;28;20045;-63
2022/05/26 00:47:15;;;;;;;43.55;12.57;;;;;;;;;;5025250;28;20048;-64
2022/05/26 00:49:54;;;;;;;47.83;12.52;;;;;;;;;;5021160;28;20067;-65
2022/05/26 00:52:27;;;;;;;43.13;12.43;;;;;;;;;;5027699;28;20072;-64
2022/05/26 00:54:55;;;;;;;44.75;12.70;;;;;;;;;;5030043;28;20051;-64
2022/05/26 00:57:29;;;;;;;43.38;12.70;;;;;;;;;;5030424;28;20115;-64
2022/05/26 00:59:58;;;;;;;41.80;11.77;;;;;;;;;;5009956;28;20132;-64
2022/05/26 01:02:38;;;;;;;39.70;12.60;;;;;;;;;;5030100;28;20473;-65
2022/05/26 01:05:23;;;;;;;45.33;12.85;;;;;;;;;;5028110;28;20622;-64
2022/05/26 01:07:50;;;;;;;43.25;11.55;;;;;;;;;;5029770;28;20050;-64
2022/05/26 01:10:16;;;;;;;39.85;11.45;;;;;;;;;;5011546;28;20084;-63
2022/05/26 01:12:43;;;;;;;43.63;12.82;;;;;;;;;;5027338;28;20458;-64
2022/05/26 01:15:09;;;;;;;;;;;;;;;;;;5028248;28;20046;-64
2022/05/26 01:17:54;;;;;;;41.47;12.18;;;;;;;;;;5029936;28;19952;-65
2022/05/26 01:20:21;;;;;;;45.38;11.23;;;;;;;;;;5013339;28;20108;-64
2022/05/26 01:23:02;;;;;;;46.20;12.63;;;;;;;;;;5029544;28;20194;-64
2022/05/26 01:25:47;;;;;;;41.00;10.77;;;;;;;;;;5028476;28;20049;-65
2022/05/26 01:28:13;;;;;;;44.50;11.68;;;;;;;;;;5019895;28;20062;-64
2022/05/26 01:30:49;;;;;;;42.38;10.80;;;;;;;;;;5013974;28;20401;-64
2022/05/26 01:33:22;;;;;;;39.67;10.13;;;;;;;;;;5019866;28;20042;-64
2022/05/26 01:35:57;;;;;;;45.65;10.52;;;;;;;;;;5029614;28;20080;-63
2022/05/26 01:38:26;;;;;;;37.50;10.07;;;;;;;;;;5029700;28;20050;-64
2022/05/26 01:41:11;;;;;;;39.47;8.60;;;;;;;;;;5013118;28;20192;-64
2022/05/26 01:44:04;;;;;;;38.80;10.20;;;;;;;;;;5026260;28;20045;-64
2022/05/26 01:46:30;;;;;;;39.20;9.00;;;;;;;;;;5029446;28;20128;-65
2022/05/26 01:49:05;;;;;;;31.98;8.63;;;;;;;;;;5028813;28;20069;-64
2022/05/26 01:51:33;;;;;;;36.42;9.02;;;;;;;;;;5015329;28;20100;-64
2022/05/26 01:54:19;;;;;;;37.67;8.75;;;;;;;;;;5024473;28;20048;-63
2022/05/26 01:56:53;;;;;;;42.50;8.85;;;;;;;;;;5009168;28;20060;-65
2022/05/26 01:59:23;;;;;;;35.70;8.73;;;;;;;;;;5008822;28;20501;-64
2022/05/26 02:01:55;;;;;;;40.65;9.88;;;;;;;;;;5012019;28;20128;-65
2022/05/26 02:04:23;;;;;;;41.88;8.88;;;;;;;;;;5019369;28;20358;-64
2022/05/26 02:06:52;;;;;;;48.92;11.30;;;;;;;;;;5028900;28;20102;-65
2022/05/26 02:09:21;;;;;;;36.95;8.65;;;;;;;;;;5027351;28;20057;-63
2022/05/26 02:11:50;;;;;;;38.55;9.40;;;;;;;;;;5022863;28;20458;-63
2022/05/26 02:14:32;;;;;;;48.33;10.68;;;;;;;;;;5024273;28;20103;-64
2022/05/26 02:17:11;;;;;;;35.88;9.43;;;;;;;;;;5027806;28;20053;-63
2022/05/26 02:19:43;;;;;;;39.50;9.27;;;;;;;;;;5027130;28;20351;-65
2022/05/26 02:22:27;;;;;;;34.47;8.80;;;;;;;;;;5020918;28;20042;-63
2022/05/26 02:25:08;;;;;;;41.47;9.82;;;;;;;;;;5016459;28;20461;-64
2022/05/26 02:27:34;;;;;;;37.95;10.02;;;;;;;;;;5004837;28;20462;-65
2022/05/26 02:30:01;;;;;;;38.63;9.05;;;;;;;;;;4994510;28;20125;-64
2022/05/26 02:32:32;;;;;;;43.40;9.80;;;;;;;;;;5006216;28;20050;-63
2022/05/26 02:35:00;;;;;;;41.28;9.60;;;;;;;;;;5024463;28;20041;-63
2022/05/26 02:37:27;;;;;;;41.63;8.40;;;;;;;;;;5010651;28;20049;-64
2022/05/26 02:39:53;;;;;;;41.50;9.23;;;;;;;;;;5023849;28;20344;-64
2022/05/26 02:42:20;;;;;;;35.58;8.65;;;;;;;;;;5007970;28;20455;-64
2022/05/26 02:44:47;;;;;;;38.38;9.20;;;;;;;;;;5008777;28;20118;-64
2022/05/26 02:47:15;;;;;;;40.20;9.65;;;;;;;;;;5025348;28;20053;-63
2022/05/26 02:49:41;;;;;;;40.60;9.75;;;;;;;;;;5024659;28;20092;-64
2022/05/26 02:52:10;;;;;;;34.35;8.15;;;;;;;;;;5007496;28;20092;-64
2022/05/26 02:54:45;;;;;;;37.53;8.82;;;;;;;;;;5008313;28;20042;-64
2022/05/26 02:57:27;;;;;;;30.77;7.93;;;;;;;;;;5023219;28;20072;-65
2022/05/26 03:00:02;;;;;;;30.92;8.48;;;;;;;;;;5023717;28;20080;-64
2022/05/26 03:02:46;;;;;;;37.50;8.65;;;;;;;;;;5004187;28;20117;-64
2022/05/26 03:05:43;;;;;;;34.20;8.57;;;;;;;;;;5010779;28;20116;-64
2022/05/26 03:08:11;;;;;;;38.78;8.95;;;;;;;;;;5010611;28;20131;-64
2022/05/26 03:10:38;;;;;;;32.70;8.23;;;;;;;;;;5028098;28;20512;-64
2022/05/26 03:13:04;;;;;;;;;;;;;;;;;;5007446;28;20038;-63
2022/05/26 03:15:31;;;;;;;35.13;8.75;;;;;;;;;;5017017;28;19991;-64
2022/05/26 03:17:59;;;;;;;35.35;8.65;;;;;;;;;;5027659;28;20145;-64
2022/05/26 03:20:25;;;;;;;42.85;9.75;;;;;;;;;;5025870;28;20085;-64
2022/05/26 03:22:51;;;;;;;48.20;9.20;;;;;;;;;;5011813;28;20050;-65
2022/05/26 03:25:18;;;;;;;38.45;9.60;;;;;;;;;;5009514;28;20072;-64
2022/05/26 03:27:44;;;;;;;33.05;9.35;;;;;;;;;;5008008;28;20603;-64
2022/05/26 03:30:10;;;;;;;38.80;8.73;;;;;;;;;;5017142;28;20096;-64
2022/05/26 03:32:36;;;;;;;38.15;8.98;;;;;;;;;;5007209;28;20394;-64
2022/05/26 03:43:41;;;;;;;25.10;7.70;;;;;;;;;;4964885;28;20051;-64
2022/05/26 03:46:08;;;;;;;25.05;7.32;;;;;;;;;;4965699;28;20055;-63
2022/05/26 03:48:35;;;;;;;29.38;6.93;;;;;;;;;;5006191;28;20049;-64
2022/05/26 03:51:01;;;;;;;26.83;6.70;;;;;;;;;;5021539;28;20057;-64
2022/05/26 03:53:27;;;;;;;23.30;6.40;;;;;;;;;;5009756;28;20046;-63
2022/05/26 03:55:53;;;;;;;25.73;6.22;;;;;;;;;;5010497;28;20122;-63
2022/05/26 03:58:19;;;;;;;25.20;5.38;;;;;;;;;;5023119;28;20148;-63
2022/05/26 04:00:45;;;;;;;19.27;4.88;;;;;;;;;;5024266;28;20377;-63
2022/05/26 04:03:11;;;;;;;15.73;4.45;;;;;;;;;;5009044;28;20065;-63
2022/05/26 04:05:37;;;;;;;19.70;4.55;;;;;;;;;;5010399;28;20122;-63
2022/05/26 04:08:04;;;;;;;18.25;4.90;;;;;;;;;;5016203;28;20096;-64
2022/05/26 04:10:30;;;;;;;19.50;4.38;;;;;;;;;;5029225;28;20763;-63
2022/05/26 04:12:56;;;;;;;18.98;4.57;;;;;;;;;;5015782;28;20042;-63
2022/05/26 04:15:23;;;;;;;15.68;4.40;;;;;;;;;;5022173;28;20056;-63
2022/05/26 04:17:49;;;;;;;19.50;4.15;;;;;;;;;;5026186;28;20076;-63
2022/05/26 04:20:18;;;;;;;18.13;3.80;;;;;;;;;;5029276;28;20117;-63
2022/05/26 04:22:44;;;;;;;19.73;3.92;;;;;;;;;;5022808;28;20124;-64
2022/05/26 04:25:11;;;;;;;25.83;4.30;;;;;;;;;;5027718;28;20465;-63
2022/05/26 04:27:37;;;;;;;15.77;4.00;;;;;;;;;;5018619;28;20072;-63
2022/05/26 04:30:05;;;;;;;16.95;3.88;;;;;;;;;;5010874;28;20048;-63
2022/05/26 04:32:32;;;;;;;18.13;3.83;;;;;;;;;;5017586;28;20121;-63
2022/05/26 04:34:58;;;;;;;15.73;4.20;;;;;;;;;;5029678;28;20049;-65
2022/05/26 04:37:25;;;;;;;17.00;3.75;;;;;;;;;;5028571;28;20049;-63
2022/05/26 04:39:53;;;;;;;14.07;3.58;;;;;;;;;;5026899;28;20403;-63
2022/05/26 04:42:20;;;;;;;15.70;3.70;;;;;;;;;;5021621;28;20053;-63
2022/05/26 04:44:46;;;;;;;17.80;3.92;;;;;;;;;;5029164;28;20053;-64
2022/05/26 04:47:12;;;;;;;;;;;;;;;;;;5029627;28;20114;-63
2022/05/26 04:49:39;;;;;;;20.30;4.22;;;;;;;;;;5025123;28;19920;-63
2022/05/26 04:52:06;;;;;;;17.48;4.45;;;;;;;;;;5013233;28;20116;-64
2022/05/26 04:54:32;;;;;;;18.95;3.65;;;;;;;;;;5008499;28;20502;-63
2022/05/26 04:56:59;;;;;;;16.50;3.50;;;;;;;;;;5009096;28;20045;-63
2022/05/26 04:59:25;;;;;;;15.65;3.35;;;;;;;;;;5008161;28;20053;-63
2022/05/26 05:01:51;;;;;;;15.13;3.30;;;;;;;;;;5013593;28;20053;-65
2022/05/26 05:04:17;;;;;;;14.23;3.10;;;;;;;;;;5028096;28;20045;-62
2022/05/26 05:06:43;;;;;;;14.82;3.15;;;;;;;;;;5028394;28;20049;-64
2022/05/26 05:09:10;;;;;;;13.52;3.30;;;;;;;;;;5028570;28;20047;-65
2022/05/26 05:11:37;;;;;;;19.45;3.55;;;;;;;;;;5025448;28;20061;-63
2022/05/26 05:14:03;;;;;;;19.95;3.22;;;;;;;;;;5008321;28;20041;-64
2022/05/26 05:16:31;;;;;;;16.85;3.55;;;;;;;;;;5007919;28;20105;-64
2022/05/26 05:18:57;;;;;;;14.57;3.05;;;;;;;;;;5008506;28;20129;-64
2022/05/26 05:21:35;;;;;;;19.90;3.70;;;;;;;;;;5008225;28;20133;-63
2022/05/26 05:24:07;;;;;;;14.35;3.33;;;;;;;;;;5007699;28;20128;-64
2022/05/26 05:26:35;;;;;;;14.63;3.30;;;;;;;;;;5018045;28;20132;-63
2022/05/26 05:29:05;;;;;;;15.05;3.17;;;;;;;;;;5027296;28;20126;-64
2022/05/26 05:31:34;;;;;;;17.17;4.15;;;;;;;;;;5027614;28;20173;-63
2022/05/26 05:34:02;;;;;;;15.15;3.47;;;;;;;;;;5013140;28;20050;-65
2022/05/26 05:36:31;;;;;;;13.13;3.17;;;;;;;;;;5007560;28;20045;-63
2022/05/26 05:38:58;;;;;;;12.13;3.03;;;;;;;;;;5008319;28;20072;-65
2022/05/26 05:41:25;;;;;;;12.43;2.83;;;;;;;;;;5007659;28;20061;-64
2022/05/26 05:43:51;;;;;;;15.73;3.03;;;;;;;;;;5005658;28;20076;-64
2022/05/26 05:46:19;;;;;;;13.57;3.10;;;;;;;;;;5005372;28;20072;-64
2022/05/26 05:48:46;;;;;;;16.80;3.80;;;;;;;;;;5018403;28;20080;-64
2022/05/26 05:51:12;;;;;;;12.48;3.08;;;;;;;;;;5018531;28;20046;-64
2022/05/26 05:53:38;;;;;;;15.13;3.35;;;;;;;;;;5025609;28;20045;-64
2022/05/26 05:56:04;;;;;;;13.32;2.78;;;;;;;;;;5016584;28;20386;-63
2022/05/26 05:58:30;;;;;;;16.00;2.90;;;;;;;;;;5026311;28;20488;-63
2022/05/26 06:00:56;;;;;;;16.55;3.40;;;;;;;;;;5011976;28;20117;-65
2022/05/26 06:03:23;;;;;;;19.08;2.92;;;;;;;;;;5005463;28;20049;-63
2022/05/26 06:05:49;;;;;;;17.55;3.53;;;;;;;;;;5023237;28;20126;-65
2022/05/26 06:08:15;;;;;;;10.73;2.50;;;;;;;;;;5027699;28;20045;-64
2022/05/26 06:10:41;;;;;;;;;;;;;;;;;;5026736;28;20045;-64
2022/05/26 06:13:07;;;;;;;15.13;3.40;;;;;;;;;;5007126;28;20012;-65
2022/05/26 06:15:33;;;;;;;11.65;2.88;;;;;;;;;;5006006;28;20042;-64
2022/05/26 06:18:00;;;;;;;16.20;2.70;;;;;;;;;;5016835;28;20057;-64
2022/05/26 06:20:26;;;;;;;18.85;2.97;;;;;;;;;;5027095;28;20041;-63
2022/05/26 06:22:52;;;;;;;;;;;;;;;;;;5012049;28;20554;-64
2022/05/26 06:25:19;;;;;;;10.68;2.47;;;;;;;;;;5025005;28;20007;-64
2022/05/26 06:30:31;;;;;;;18.05;3.28;;;;;;;;;;5004500;28;20080;-66
2022/05/26 06:38:31;;;;;;;17.63;3.00;;;;;;;;;;5006741;28;20096;-65
2022/05/26 06:42:05;;;;;;;12.63;2.47;;;;;;;;;;5015858;28;20132;-67
2022/05/26 06:43:43;;;;;;;11.95;2.65;;;;;;;;;;5023174;28;20450;-65
2022/05/26 06:46:09;;;;;;;9.82;2.13;;;;;;;;;;5025879;28;20086;-65
2022/05/26 06:48:35;;;;;;;12.85;2.40;;;;;;;;;;5012139;28;20194;-65
2022/05/26 06:51:01;;;;;;;16.95;2.78;;;;;;;;;;5003980;28;20042;-64
2022/05/26 06:53:27;;;;;;;14.57;3.08;;;;;;;;;;5014567;28;20061;-66
2022/05/26 06:55:53;;;;;;;8.95;2.38;;;;;;;;;;5004869;28;20210;-64
2022/05/26 06:58:20;;;;;;;14.10;2.75;;;;;;;;;;5013537;28;20409;-65
2022/05/26 07:00:46;;;;;;;;;;;;;;;;;;5005381;28;20478;-66
2022/05/26 07:03:14;;;;;;;11.30;2.33;;;;;;;;;;5005556;28;20020;-66
2022/05/26 07:05:40;;;;;;;13.25;3.00;;;;;;;;;;5006157;28;20110;-65
2022/05/26 07:08:06;;;;;;;13.90;2.72;;;;;;;;;;5000352;28;20050;-65
2022/05/26 07:10:34;;;;;;;17.30;2.88;;;;;;;;;;5026175;28;20084;-64
2022/05/26 07:13:00;;;;;;;12.50;2.50;;;;;;;;;;5003977;28;20569;-66
2022/05/26 07:15:26;;;;;;;13.45;2.97;;;;;;;;;;5010193;28;20110;-68
2022/05/26 07:17:52;;;;;;;;;;;;;;;;;;5020318;28;20287;-67
2022/05/26 07:20:18;;;;;;;10.07;2.50;;;;;;;;;;5022841;28;20038;-66
2022/05/26 07:22:44;;;;;;;;;;;;;;;;;;5009536;28;20227;-67
2022/05/26 07:25:11;;;;;;;9.85;2.25;;;;;;;;;;5012144;28;20071;-67
2022/05/26 07:27:37;;;;;;;;;;;;;;;;;;5006401;28;20157;-68
2022/05/26 07:30:03;;;;;;;13.13;3.50;;;;;;;;;;5018369;28;20760;-66
2022/05/26 07:32:29;;;;;;;11.25;2.65;;;;;;;;;;5012490;28;20050;-68
2022/05/26 07:34:55;;;;;;;11.63;2.50;;;;;;;;;;5009475;28;20117;-68
2022/05/26 07:42:51;;;;;;;12.45;2.50;;;;;;;;;;5009756;28;20155;-67
2022/05/26 07:45:17;;;;;;;11.18;2.33;;;;;;;;;;5006184;28;20141;-70
2022/05/26 07:47:43;;;;;;;;;;;;;;;;;;5014977;28;20045;-71
2022/05/26 07:50:11;;;;;;;10.98;2.92;;;;;;;;;;5020106;28;19966;-69
2022/05/26 07:52:37;;;;;;;11.52;2.90;;;;;;;;;;5021168;28;20357;-68
2022/05/26 07:55:04;;;;;;;12.90;2.60;;;;;;;;;;5017456;28;20064;-65
2022/05/26 07:57:30;;;;;;;9.80;2.33;;;;;;;;;;5019245;28;20224;-69
2022/05/26 07:59:57;;;;;;;12.18;2.50;;;;;;;;;;5009498;28;20220;-68
2022/05/26 08:02:24;;;;;;;12.77;2.58;;;;;;;;;;5009633;28;20045;-67
2022/05/26 08:04:50;;;;;;;9.10;2.45;;;;;;;;;;5012473;28;20100;-69
2022/05/26 08:07:16;;;;;;;11.65;2.38;;;;;;;;;;5022802;28;20443;-67
2022/05/26 08:09:42;;;;;;;14.65;2.50;;;;;;;;;;5002409;28;20447;-67
2022/05/26 08:12:10;;;;;;;14.98;2.58;;;;;;;;;;5015470;28;20136;-67
2022/05/26 08:14:37;;;;;;;11.30;2.40;;;;;;;;;;5012309;28;20054;-66
2022/05/26 08:17:03;;;;;;;8.65;2.30;;;;;;;;;;5007078;28;20131;-67
2022/05/26 08:19:29;;;;;;;;;;;;;;;;;;5008245;28;20143;-67
2022/05/26 08:21:55;;;;;;;10.57;2.42;;;;;;;;;;5008077;28;19929;-67
2022/05/26 08:24:22;;;;;;;9.93;2.25;;;;;;;;;;5010465;28;20504;-68
2022/05/26 08:26:48;;;;;;;11.05;2.45;;;;;;;;;;5005532;28;20359;-68
2022/05/26 08:29:14;;;;;;;;;;;;;;;;;;5005397;28;20410;-67
2022/05/26 08:31:41;;;;;;;11.13;2.38;;;;;;;;;;5020198;28;19929;-66
2022/05/26 08:34:07;;;;;;;11.43;2.70;;;;;;;;;;5021329;28;20117;-68
2022/05/26 08:36:34;;;;;;;12.35;2.47;;;;;;;;;;5020552;28;20198;-66
2022/05/26 08:39:00;;;;;;;12.93;2.40;;;;;;;;;;5007835;28;20137;-67
2022/05/26 08:41:33;;;;;;;11.80;2.60;;;;;;;;;;5009498;28;20038;-66
2022/05/26 08:44:04;;;;;;;23.40;2.58;;;;;;;;;;5008674;28;20042;-64
2022/05/26 08:46:36;;;;;;;11.60;2.10;;;;;;;;;;5010617;28;20121;-67
2022/05/26 08:49:08;;;;;;;15.75;2.50;;;;;;;;;;5006783;28;20033;-67
2022/05/26 08:51:34;;;;;;;17.75;2.97;;;;;;;;;;5010020;28;20053;-69
2022/05/26 08:54:02;;;;;;;10.77;2.50;;;;;;;;;;5010281;28;20485;-67
2022/05/26 08:56:28;;;;;;;11.88;2.40;;;;;;;;;;5010566;28;20183;-66
2022/05/26 08:58:54;;;;;;;;;;;;;;;;;;5008914;28;20128;-67
2022/05/26 09:01:24;;;;;;;10.50;2.25;;;;;;;;;;5009158;28;20136;-65
2022/05/26 09:03:52;;;;;;;12.10;2.20;;;;;;;;;;5008025;28;20117;-67
2022/05/26 09:06:19;;;;;;;11.40;2.42;;;;;;;;;;5010042;28;20159;-70
2022/05/26 09:14:38;;;;;;;8.98;2.40;;;;;;;;;;5008565;28;20084;-85
2022/05/26 09:17:11;;;;;;;10.73;2.15;;;;;;;;;;5005886;28;20061;-83
2022/05/26 09:19:43;;;;;;;8.88;1.83;;;;;;;;;;5010147;28;20417;-67
2022/05/26 09:22:25;;;;;;;9.18;1.92;;;;;;;;;;5011589;28;20848;-66
2022/05/26 09:24:51;;;;;;;10.27;2.45;;;;;;;;;;5013654;28;20049;-66
2022/05/26 09:27:44;;;;;;;9.05;2.22;;;;;;;;;;5009598;28;20125;-65
2022/05/26 09:30:16;;;;;;;10.27;1.70;;;;;;;;;;5017612;28;20050;-69
2022/05/26 09:32:42;;;;;;;8.32;1.80;;;;;;;;;;5020590;28;20139;-66
2022/05/26 09:35:13;;;;;;;8.45;1.70;;;;;;;;;;5016987;28;20351;-65
2022/05/26 09:37:41;;;;;;;8.73;2.13;;;;;;;;;;5016322;28;20081;-68
2022/05/26 09:40:16;;;;;;;9.07;1.80;;;;;;;;;;5007822;28;20053;-67
2022/05/26 09:42:42;;;;;;;8.35;2.20;;;;;;;;;;5020523;28;20054;-66
2022/05/26 09:45:11;;;;;;;10.57;2.35;;;;;;;;;;4997011;28;20184;-66
2022/05/26 09:47:39;;;;;;;15.30;2.33;;;;;;;;;;5006990;28;20053;-67
2022/05/26 09:50:07;;;;;;;10.93;2.00;;;;;;;;;;5019525;28;20045;-65
2022/05/26 09:52:42;;;;;;;9.43;1.88;;;;;;;;;;5017547;28;20054;-67
2022/05/26 09:55:11;;;;;;;9.00;1.98;;;;;;;;;;4997680;28;20142;-67
2022/05/26 09:57:37;;;;;;;8.48;1.77;;;;;;;;;;5008413;28;20128;-66
2022/05/26 10:00:05;;;;;;;;;;;;;;;;;;5016808;28;20060;-66
2022/05/26 10:02:40;;;;;;;8.50;1.65;;;;;;;;;;5013390;28;19958;-66
2022/05/26 10:05:23;;;;;;;7.93;2.03;;;;;;;;;;4998164;28;20046;-70
2022/05/26 10:07:52;;;;;;;9.13;1.92;;;;;;;;;;4998151;28;20058;-66
2022/05/26 10:10:18;;;;;;;9.30;1.70;;;;;;;;;;5006235;28;20050;-71
2022/05/26 10:12:48;;;;;;;9.02;1.73;;;;;;;;;;5009605;28;20440;-68
2022/05/26 10:15:21;;;;;;;4.82;1.65;;;;;;;;;;5004611;28;20112;-65
2022/05/26 10:17:51;;;;;;;9.32;2.10;;;;;;;;;;5015378;28;20438;-67
2022/05/26 10:20:25;;;;;;;13.73;2.15;;;;;;;;;;5017886;28;20089;-69
2022/05/26 10:23:10;;;;;;;5.97;1.45;;;;;;;;;;5004833;28;20454;-66
2022/05/26 10:25:55;;;;;;;9.90;2.05;;;;;;;;;;5001544;28;20127;-65
2022/05/26 10:28:32;;;;;;;7.05;1.88;;;;;;;;;;5004596;28;20056;-67
2022/05/26 10:31:09;;;;;;;7.55;1.73;;;;;;;;;;5013096;28;20486;-64
2022/05/26 10:33:57;;;;;;;11.30;2.20;;;;;;;;;;5011674;28;20438;-67
2022/05/26 10:36:30;;;;;;;7.63;1.90;;;;;;;;;;5007533;28;20359;-72
2022/05/26 10:38:56;;;;;;;8.57;2.00;;;;;;;;;;5007812;28;20646;-64
2022/05/26 10:41:26;;;;;;;7.00;2.00;;;;;;;;;;5004965;28;20076;-65
2022/05/26 10:43:58;;;;;;;7.32;2.03;;;;;;;;;;5007795;28;20042;-64
2022/05/26 10:46:26;;;;;;;12.13;2.10;;;;;;;;;;5009383;28;20038;-65
2022/05/26 10:49:04;;;;;;;9.52;1.90;;;;;;;;;;5008394;28;20112;-64
2022/05/26 10:51:32;;;;;;;10.85;2.10;;;;;;;;;;5017434;28;20101;-67
2022/05/26 10:54:05;;;;;;;9.07;2.13;;;;;;;;;;5007374;28;20038;-65
2022/05/26 10:56:43;;;;;;;13.80;2.63;;;;;;;;;;5006214;28;20103;-65
2022/05/26 10:59:21;;;;;;;5.97;1.88;;;;;;;;;;4997080;28;20076;-65
2022/05/26 11:02:00;;;;;;;8.57;2.05;;;;;;;;;;5012956;28;20155;-74
2022/05/26 11:04:34;;;;;;;9.55;2.05;;;;;;;;;;4993017;28;20129;-65
2022/05/26 11:07:03;;;;;;;11.93;2.25;;;;;;;;;;5007929;28;20535;-64
2022/05/26 11:09:36;;;;;;;8.10;2.10;;;;;;;;;;5016189;28;20064;-65
2022/05/26 11:12:05;;;;;;;8.70;1.88;;;;;;;;;;5007392;28;20159;-65
2022/05/26 11:17:21;;;;;;;15.32;2.30;;;;;;;;;;5013451;28;20426;-66
2022/05/26 11:19:54;;;;;;;7.95;2.10;;;;;;;;;;5010827;28;20062;-68
2022/05/26 11:22:20;;;;;;;10.13;2.42;;;;;;;;;;5005121;28;20097;-67
2022/05/26 11:24:50;;;;;;;7.13;2.13;;;;;;;;;;5009961;28;20045;-68
2022/05/26 11:27:34;;;;;;;6.88;1.85;;;;;;;;;;5011819;28;20167;-66
2022/05/26 11:30:03;;;;;;;9.00;2.13;;;;;;;;;;5007416;28;20057;-67
2022/05/26 11:38:06;;;;;;;7.03;2.00;;;;;;;;;;5008791;28;20128;-64
2022/05/26 11:40:35;;;;;;;11.95;2.40;;;;;;;;;;5006826;28;20093;-65
2022/05/26 11:43:02;;;;;;;9.55;2.22;;;;;;;;;;5007274;28;20033;-64
2022/05/26 11:45:30;;;;;;;10.27;2.20;;;;;;;;;;5013033;28;20168;-70
2022/05/26 11:48:26;;;;;;;11.68;2.50;;;;;;;;;;5018452;28;20139;-66
2022/05/26 11:50:57;;;;;;;12.68;2.70;;;;;;;;;;5000207;28;20116;-68
2022/05/26 11:53:33;;;;;;;7.20;2.15;;;;;;;;;;5009653;28;20077;-72
2022/05/26 11:56:04;;;;;;;6.75;2.15;;;;;;;;;;5013775;28;20145;-64
2022/05/26 11:58:37;;;;;;;10.75;2.35;;;;;;;;;;5010972;28;20042;-65
2022/05/26 12:01:12;;;;;;;15.80;2.38;;;;;;;;;;5004082;28;20049;-65
2022/05/26 12:03:53;;;;;;;10.93;2.42;;;;;;;;;;5010688;28;20490;-64
2022/05/26 12:06:34;;;;;;;9.93;2.25;;;;;;;;;;4987609;28;20057;-70
2022/05/26 12:09:03;;;;;;;9.18;2.00;;;;;;;;;;5009295;28;20161;-66
2022/05/26 12:11:49;;;;;;;9.45;2.22;;;;;;;;;;5011940;28;20208;-66
2022/05/26 12:14:21;;;;;;;9.73;1.92;;;;;;;;;;5009000;28;20112;-68
2022/05/26 12:16:47;;;;;;;13.65;2.30;;;;;;;;;;5021469;28;20116;-69
2022/05/26 12:19:33;;;;;;;11.90;2.28;;;;;;;;;;5010706;28;20129;-65
2022/05/26 12:22:14;;;;;;;13.32;2.70;;;;;;;;;;5007132;28;20057;-66
2022/05/26 12:24:59;;;;;;;12.20;2.50;;;;;;;;;;5017641;28;20351;-65
2022/05/26 12:27:44;;;;;;;12.88;2.25;;;;;;;;;;5014691;28;20042;-65
2022/05/26 12:30:10;;;;;;;11.15;2.35;;;;;;;;;;5007106;28;20064;-66
2022/05/26 12:32:38;;;;;;;10.20;3.10;;;;;;;;;;5011346;28;20183;-65
2022/05/26 12:35:23;;;;;;;13.52;2.35;;;;;;;;;;5008909;28;20385;-65
2022/05/26 12:37:52;;;;;;;8.13;2.20;;;;;;;;;;5012011;28;20054;-66
2022/05/26 12:40:37;;;;;;;10.50;2.33;;;;;;;;;;4994692;28;20137;-66
2022/05/26 12:43:11;;;;;;;11.52;2.63;;;;;;;;;;5013347;28;20105;-65
2022/05/26 12:45:51;;;;;;;9.70;2.42;;;;;;;;;;5009454;28;20094;-66
2022/05/26 12:48:38;;;;;;;9.82;2.47;;;;;;;;;;5015203;28;20157;-69
2022/05/26 12:51:08;;;;;;;8.60;2.25;;;;;;;;;;5014560;28;20224;-67
2022/05/26 12:53:37;;;;;;;11.93;2.63;;;;;;;;;;5005907;28;20336;-66
2022/05/26 12:56:14;;;;;;;10.02;2.35;;;;;;;;;;5010533;28;20208;-66
2022/05/26 12:58:46;;;;;;;14.15;2.72;;;;;;;;;;5015447;28;20172;-65
2022/05/26 13:01:14;;;;;;;11.80;3.20;;;;;;;;;;5011097;28;20117;-66
2022/05/26 13:03:42;;;;;;;10.73;2.60;;;;;;;;;;5008072;28;20450;-66
2022/05/26 13:06:23;;;;;;;10.77;2.50;;;;;;;;;;5005931;28;20053;-64
2022/05/26 13:09:22;;;;;;;9.80;2.50;;;;;;;;;;5011762;28;20076;-67
2022/05/26 13:11:52;;;;;;;10.93;2.38;;;;;;;;;;4988810;28;20061;-65
2022/05/26 13:14:39;;;;;;;12.38;2.78;;;;;;;;;;5001951;28;20107;-64
2022/05/26 13:17:12;;;;;;;10.70;2.87;;;;;;;;;;5017035;28;20066;-67
2022/05/26 13:19:43;;;;;;;12.95;2.90;;;;;;;;;;5005788;28;20769;-66
2022/05/26 13:22:28;;;;;;;13.73;2.75;;;;;;;;;;5007161;28;20116;-67
2022/05/26 13:24:56;;;;;;;12.18;2.55;;;;;;;;;;5008546;28;20453;-67
2022/05/26 13:27:23;;;;;;;13.70;2.72;;;;;;;;;;5016096;28;20120;-65
2022/05/26 13:29:51;;;;;;;12.63;2.67;;;;;;;;;;5017041;28;20446;-67
2022/05/26 13:35:18;;;;;;;12.93;2.90;;;;;;;;;;5009812;28;20430;-67
2022/05/26 13:37:44;;;;;;;14.48;3.15;;;;;;;;;;5011930;28;20045;-69
2022/05/26 13:40:10;;;;;;;;;;;;;;;;;;5010913;28;20058;-72
2022/05/26 13:42:37;;;;;;;13.43;2.75;;;;;;;;;;5008041;28;20035;-69
2022/05/26 13:45:05;;;;;;;11.32;2.90;;;;;;;;;;5016760;28;20114;-75
2022/05/26 13:47:31;;;;;;;15.52;2.97;;;;;;;;;;5014192;28;20046;-65
2022/05/26 13:50:00;;;;;;;14.73;3.00;;;;;;;;;;5010502;28;20121;-66
2022/05/26 13:52:27;;;;;;;11.40;2.80;;;;;;;;;;4997384;28;20355;-67
2022/05/26 13:54:55;;;;;;;11.48;2.38;;;;;;;;;;5006634;28;20096;-65
2022/05/26 13:57:21;;;;;;;13.75;2.70;;;;;;;;;;5007085;28;20474;-65
2022/05/26 13:59:52;;;;;;;11.20;2.97;;;;;;;;;;5007182;28;20478;-66
2022/05/26 14:02:24;;;;;;;9.90;2.78;;;;;;;;;;5008121;28;20377;-65
2022/05/26 14:05:20;;;;;;;12.13;2.63;;;;;;;;;;5007793;28;20080;-67
2022/05/26 14:07:46;;;;;;;13.40;3.15;;;;;;;;;;4999873;28;20332;-65
2022/05/26 14:10:15;;;;;;;12.70;2.85;;;;;;;;;;5007409;28;20199;-66
2022/05/26 14:12:42;;;;;;;12.05;2.83;;;;;;;;;;5011859;28;20836;-67
2022/05/26 14:15:09;;;;;;;11.55;2.17;;;;;;;;;;5008691;28;20096;-85
2022/05/26 14:17:37;;;;;;;12.82;2.55;;;;;;;;;;5013058;28;20057;-75
2022/05/26 14:20:24;;;;;;;10.85;2.53;;;;;;;;;;4991744;28;20125;-81
2022/05/26 14:22:50;;;;;;;13.68;2.70;;;;;;;;;;5007012;28;20069;-84
2022/05/26 14:25:17;;;;;;;10.82;2.45;;;;;;;;;;5016165;28;20390;-84
2022/05/26 14:27:55;;;;;;;14.85;3.10;;;;;;;;;;5013228;28;20052;-80
2022/05/26 14:30:38;;;;;;;12.75;3.20;;;;;;;;;;5001650;28;20038;-84
2022/05/26 14:33:09;;;;;;;13.73;2.67;;;;;;;;;;5007741;28;20049;-77
2022/05/26 14:35:35;;;;;;;10.85;2.38;;;;;;;;;;5005151;28;20062;-81
2022/05/26 14:38:01;;;;;;;10.82;2.85;;;;;;;;;;5007637;28;20077;-83
2022/05/26 14:40:27;;;;;;;11.27;2.90;;;;;;;;;;5011390;28;20092;-81
2022/05/26 14:42:53;;;;;;;12.30;3.30;;;;;;;;;;5009558;28;20058;-66
2022/05/26 14:45:20;;;;;;;13.98;2.95;;;;;;;;;;5013457;28;20045;-66
2022/05/26 14:47:46;;;;;;;14.35;3.22;;;;;;;;;;5009256;28;20057;-65
2022/05/26 14:50:13;;;;;;;15.15;3.00;;;;;;;;;;5015738;28;20104;-66
2022/05/26 14:52:40;;;;;;;12.30;3.00;;;;;;;;;;5005498;28;20129;-64
2022/05/26 14:57:53;;;;;;;22.63;3.13;;;;;;;;;;5008328;28;20094;-67
2022/05/26 15:00:20;;;;;;;15.23;2.90;;;;;;;;;;5004642;28;20123;-66
2022/05/26 15:02:47;;;;;;;12.18;2.88;;;;;;;;;;5016117;28;20045;-67
2022/05/26 15:05:13;;;;;;;12.45;3.20;;;;;;;;;;5011387;28;20106;-66
2022/05/26 15:07:43;;;;;;;9.95;2.78;;;;;;;;;;5005719;28;20378;-66
2022/05/26 15:10:10;;;;;;;14.63;3.05;;;;;;;;;;5011706;28;20075;-68
2022/05/26 15:12:36;;;;;;;11.73;3.20;;;;;;;;;;5005936;28;20049;-67
2022/05/26 15:15:06;;;;;;;14.40;3.10;;;;;;;;;;5014558;28;20150;-67
2022/05/26 15:17:32;;;;;;;14.98;3.08;;;;;;;;;;5010930;28;20451;-66
2022/05/26 15:20:00;;;;;;;19.17;3.60;;;;;;;;;;5005116;28;20054;-65
2022/05/26 15:22:27;;;;;;;15.05;3.38;;;;;;;;;;5017692;28;20155;-67
2022/05/26 15:24:53;;;;;;;17.48;3.30;;;;;;;;;;5007869;28;20041;-64
2022/05/26 15:27:22;;;;;;;12.88;3.20;;;;;;;;;;5000104;28;20042;-67
2022/05/26 15:29:48;;;;;;;19.00;3.88;;;;;;;;;;5005049;28;20153;-67
2022/05/26 15:32:26;;;;;;;17.25;3.65;;;;;;;;;;5003771;28;20057;-68
2022/05/26 15:34:52;;;;;;;13.57;3.28;;;;;;;;;;4996872;28;20129;-66